createdAt,value
2019-04-26T00:01:35.349Z,76.75
2019-04-26T00:06:40.250Z,77.57
2019-04-26T00:09:48.666Z,77.53
2019-04-26T00:12:36.667Z,77.25
2019-04-26T00:15:45.475Z,77.64
2019-04-26T00:18:14.774Z,77.21
2019-04-26T00:20:43.479Z,77.36
2019-04-26T00:26:20.602Z,77.76
2019-04-26T00:28:49.876Z,78.40
2019-04-26T00:31:19.242Z,78.83
2019-04-26T00:33:49.843Z,78.76
2019-04-26T00:36:18.748Z,78.62
2019-04-26T00:38:47.385Z,79.08
2019-04-26T00:41:55.851Z,79.26
2019-04-26T00:44:24.498Z,79.07
2019-04-26T00:47:33.259Z,79.30
2019-04-26T00:50:21.562Z,79.23
2019-04-26T00:55:46.087Z,79.69
2019-04-26T00:58:54.546Z,79.88
2019-04-26T01:09:35.046Z,81.05
2019-04-26T01:12:04.129Z,81.36
2019-04-26T01:14:33.549Z,81.61
2019-04-26T01:17:02.092Z,81.74
2019-04-26T01:20:10.557Z,81.81
2019-04-26T01:23:19.025Z,81.11
2019-04-26T01:26:27.324Z,81.06
2019-04-26T01:29:17.170Z,81.70
2019-04-26T01:32:07.775Z,82.32
2019-04-26T01:34:57.111Z,82.47
2019-04-26T01:43:29.529Z,82.44
2019-04-26T01:46:38.003Z,82.53
2019-04-26T01:49:26.865Z,82.64
2019-04-26T01:52:35.873Z,82.97
2019-04-26T01:55:25.255Z,82.83
2019-04-26T01:58:33.711Z,83.60
2019-04-26T02:06:39.627Z,83.51
2019-04-26T02:11:47.864Z,83.17
2019-04-26T02:14:16.768Z,83.80
2019-04-26T02:16:45.412Z,83.83
2019-04-26T02:19:14.098Z,83.91
2019-04-26T02:22:01.960Z,83.88
2019-04-26T02:25:10.413Z,84.03
2019-04-26T02:27:39.090Z,84.15
2019-04-26T02:32:48.072Z,85.30
2019-04-26T02:35:16.753Z,85.30
2019-04-26T02:38:04.690Z,85.49
2019-04-26T02:40:34.747Z,85.47
2019-04-26T02:43:03.824Z,85.84
2019-04-26T02:46:12.262Z,86.18
2019-04-26T02:49:21.128Z,86.48
2019-04-26T02:52:33.356Z,85.95
2019-04-26T02:55:42.418Z,86.18
2019-04-26T02:58:50.259Z,86.63
2019-04-26T03:05:06.919Z,86.84
2019-04-26T03:08:15.634Z,86.83
2019-04-26T03:11:05.305Z,87.29
2019-04-26T03:14:13.766Z,87.65
2019-04-26T03:17:22.184Z,87.64
2019-04-26T03:20:29.380Z,87.61
2019-04-26T03:23:56.353Z,87.95
2019-04-26T03:26:46.902Z,88.24
2019-04-26T03:30:05.035Z,88.04
2019-04-26T03:33:04.425Z,87.89
2019-04-26T03:39:29.956Z,87.69
2019-04-26T03:42:38.425Z,87.98
2019-04-26T03:45:46.087Z,87.66
2019-04-26T03:48:54.859Z,87.41
2019-04-26T03:52:03.612Z,87.39
2019-04-26T03:55:12.335Z,87.03
2019-04-26T03:58:21.140Z,87.40
2019-04-26T04:01:29.590Z,87.79
2019-04-26T04:04:39.599Z,87.96
2019-04-26T04:07:51.453Z,87.90
2019-04-26T04:10:41.489Z,88.05
2019-04-26T04:13:51.435Z,88.08
2019-04-26T04:16:59.610Z,87.77
2019-04-26T04:20:08.423Z,87.46
2019-04-26T04:23:16.940Z,87.70
2019-04-26T04:26:25.815Z,87.77
2019-04-26T04:29:42.157Z,88.00
2019-04-26T04:32:44.313Z,87.30
2019-04-26T04:39:12.554Z,88.24
2019-04-26T04:42:34.124Z,88.29
2019-04-26T04:45:45.713Z,88.53
2019-04-26T04:48:53.983Z,88.23
2019-04-26T04:52:01.179Z,87.95
2019-04-26T04:55:08.394Z,87.87
2019-04-26T04:58:17.282Z,87.74
2019-04-26T05:01:44.251Z,87.95
2019-04-26T05:04:53.239Z,87.85
2019-04-26T05:08:06.825Z,87.65
2019-04-26T05:11:12.018Z,87.38
2019-04-26T05:14:20.726Z,87.78
2019-04-26T05:17:29.221Z,87.50
2019-04-26T05:20:37.707Z,86.62
2019-04-26T05:23:46.209Z,87.73
2019-04-26T05:26:55.681Z,86.94
2019-04-26T05:30:05.861Z,85.62
2019-04-26T05:33:14.295Z,85.19
2019-04-26T05:36:22.808Z,86.00
2019-04-26T05:39:31.265Z,86.82
2019-04-26T05:42:39.744Z,85.83
2019-04-26T05:46:06.007Z,85.77
2019-04-26T05:49:14.525Z,85.20
2019-04-26T05:52:23.256Z,85.47
2019-04-26T05:55:31.783Z,85.87
2019-04-26T05:58:40.207Z,85.98
2019-04-26T06:01:48.662Z,85.10
2019-04-26T06:04:57.228Z,84.46
2019-04-26T06:08:05.718Z,82.99
2019-04-26T06:11:14.149Z,82.52
2019-04-26T06:14:40.530Z,81.07
2019-04-26T06:17:48.949Z,80.87
2019-04-26T06:20:57.406Z,81.59
2019-04-26T06:24:04.587Z,81.68
2019-04-26T06:27:14.417Z,81.54
2019-04-26T06:30:23.176Z,81.32
2019-04-26T06:33:31.693Z,80.53
2019-04-26T06:36:40.146Z,81.25
2019-04-26T06:39:47.304Z,80.71
2019-04-26T06:42:56.284Z,79.60
2019-04-26T06:46:05.907Z,78.70
2019-04-26T06:49:14.407Z,78.63
2019-04-26T06:52:22.920Z,80.53
2019-04-26T06:55:49.144Z,80.43
2019-04-26T06:58:57.854Z,81.71
2019-04-26T07:02:06.134Z,81.80
2019-04-26T07:05:15.315Z,81.65
2019-04-26T07:08:24.783Z,81.87
2019-04-26T07:11:33.208Z,81.61
2019-04-26T07:14:40.407Z,82.43
2019-04-26T07:17:48.828Z,82.02
2019-04-26T07:20:57.282Z,82.25
2019-04-26T07:24:05.754Z,80.92
2019-04-26T07:27:13.175Z,82.21
2019-04-26T07:30:21.919Z,82.50
2019-04-26T07:33:29.141Z,83.24
2019-04-26T07:36:37.552Z,84.00
2019-04-26T07:39:46.006Z,83.48
2019-04-26T07:42:54.473Z,84.44
2019-04-26T07:46:03.004Z,84.29
2019-04-26T07:49:10.548Z,84.38
2019-04-26T07:52:17.686Z,84.39
2019-04-26T07:55:24.839Z,84.86
2019-04-26T07:58:33.304Z,84.77
2019-04-26T08:01:42.082Z,84.35
2019-04-26T08:04:50.552Z,84.11
2019-04-26T08:07:58.982Z,83.66
2019-04-26T08:11:08.610Z,84.24
2019-04-26T08:14:17.651Z,85.59
2019-04-26T08:17:43.913Z,85.70
2019-04-26T08:20:52.383Z,86.20
2019-04-26T08:24:00.833Z,86.69
2019-04-26T08:27:18.792Z,87.39
2019-04-26T08:30:21.313Z,88.21
2019-04-26T08:33:29.668Z,88.61
2019-04-26T08:36:38.064Z,89.15
2019-04-26T08:39:50.439Z,89.82
2019-04-26T08:42:57.380Z,90.29
2019-04-26T08:46:10.444Z,89.91
2019-04-26T08:49:17.597Z,91.50
2019-04-26T08:55:22.269Z,91.84
2019-04-26T08:58:30.696Z,93.32
2019-04-26T09:01:42.003Z,93.25
2019-04-26T09:10:32.798Z,95.10
2019-04-26T09:13:41.247Z,94.65
2019-04-26T09:16:50.659Z,95.30
2019-04-26T09:19:20.055Z,95.35
2019-04-26T09:24:59.552Z,95.83
2019-04-26T09:27:46.383Z,96.28
2019-04-26T09:33:09.670Z,95.41
2019-04-26T09:35:38.308Z,96.00
2019-04-26T09:38:06.913Z,97.21
2019-04-26T09:40:35.588Z,96.61
2019-04-26T09:43:23.382Z,97.45
2019-04-26T09:46:11.020Z,97.71
2019-04-26T09:48:58.823Z,97.27
2019-04-26T09:54:16.630Z,97.51
2019-04-26T09:56:45.265Z,96.84
2019-04-26T09:59:13.936Z,96.82
2019-04-26T10:01:42.614Z,97.24
2019-04-26T10:04:11.252Z,96.46
2019-04-26T10:06:39.902Z,97.43
2019-04-26T10:12:22.344Z,98.50
2019-04-26T10:15:10.127Z,98.66
2019-04-26T10:17:38.873Z,98.67
2019-04-26T10:20:47.315Z,98.52
2019-04-26T10:23:16.046Z,97.50
2019-04-26T10:25:47.416Z,98.09
2019-04-26T10:28:15.986Z,97.86
2019-04-26T10:30:45.816Z,98.29
2019-04-26T10:33:14.474Z,98.36
2019-04-26T10:35:43.099Z,96.50
2019-04-26T10:38:11.735Z,95.20
2019-04-26T10:40:40.372Z,94.35
2019-04-26T10:45:45.880Z,93.78
2019-04-26T10:48:15.525Z,94.76
2019-04-26T10:50:45.302Z,95.93
2019-04-26T10:53:33.071Z,95.86
2019-04-26T10:56:24.169Z,97.31
2019-04-26T11:01:40.542Z,96.22
2019-04-26T11:04:09.176Z,97.66
2019-04-26T11:06:37.840Z,97.41
2019-04-26T11:09:46.261Z,97.92
2019-04-26T11:12:35.566Z,98.42
2019-04-26T11:18:12.377Z,98.27
2019-04-26T11:20:41.411Z,98.84
2019-04-26T11:23:11.967Z,97.75
2019-04-26T11:25:41.752Z,97.21
2019-04-26T11:28:10.436Z,96.67
2019-04-26T11:31:18.911Z,95.81
2019-04-26T11:33:49.594Z,96.87
2019-04-26T11:36:18.008Z,97.84
2019-04-26T11:38:46.615Z,96.53
2019-04-26T11:41:15.297Z,97.16
2019-04-26T11:43:43.924Z,97.78
2019-04-26T11:46:12.605Z,98.35
2019-04-26T11:48:41.282Z,97.88
2019-04-26T11:51:09.856Z,98.14
2019-04-26T11:53:40.504Z,98.33
2019-04-26T11:56:08.850Z,98.23
2019-04-26T11:58:37.442Z,97.80
2019-04-26T12:04:14.452Z,97.26
2019-04-26T12:09:51.226Z,97.90
2019-04-26T12:12:19.781Z,97.66
2019-04-26T12:14:48.388Z,97.13
2019-04-26T12:17:17.030Z,98.07
2019-04-26T12:19:48.298Z,96.85
2019-04-26T12:22:16.008Z,98.24
2019-04-26T12:24:44.686Z,98.58
2019-04-26T12:27:13.428Z,97.55
2019-04-26T12:29:44.181Z,97.02
2019-04-26T12:32:12.467Z,96.13
2019-04-26T12:34:41.110Z,94.33
2019-04-26T12:37:12.511Z,93.12
2019-04-26T12:39:40.068Z,94.62
2019-04-26T12:42:12.220Z,93.98
2019-04-26T12:44:58.364Z,94.43
2019-04-26T12:47:46.087Z,94.82
2019-04-26T12:53:09.736Z,95.51
2019-04-26T12:55:38.360Z,97.06
2019-04-26T12:58:07.028Z,97.60
2019-04-26T13:00:37.574Z,96.09
2019-04-26T13:05:41.324Z,97.70
2019-04-26T13:08:13.200Z,98.13
2019-04-26T13:10:59.642Z,98.00
2019-04-26T13:18:41.224Z,99.17
2019-04-26T13:21:09.886Z,99.79
2019-04-26T13:23:38.564Z,100.00
2019-04-26T13:26:07.207Z,100.00
2019-04-26T13:28:35.894Z,100.00
2019-04-26T13:31:04.527Z,100.00
2019-04-26T13:33:33.195Z,100.00
2019-04-26T13:36:03.013Z,100.00
2019-04-26T13:38:32.250Z,100.00
2019-04-26T13:41:21.492Z,100.00
2019-04-26T13:43:50.067Z,100.00
2019-04-26T13:49:18.067Z,100.00
2019-04-26T13:51:47.898Z,100.00
2019-04-26T13:54:20.939Z,100.00
2019-04-26T13:56:46.904Z,100.00
2019-04-26T13:59:15.543Z,100.00
2019-04-26T14:01:44.259Z,100.00
2019-04-26T14:04:12.954Z,100.00
2019-04-26T14:06:41.577Z,100.00
2019-04-26T14:11:45.704Z,98.48
2019-04-26T14:14:14.375Z,97.82
2019-04-26T14:19:22.730Z,99.01
2019-04-26T14:24:46.255Z,99.89
2019-04-26T14:30:43.906Z,99.12
2019-04-26T14:33:12.561Z,99.77
2019-04-26T14:35:41.116Z,96.94
2019-04-26T14:38:09.717Z,94.88
2019-04-26T14:41:22.503Z,96.48
2019-04-26T14:43:52.583Z,94.68
2019-04-26T14:46:19.024Z,97.38
2019-04-26T14:49:00.574Z,98.48
2019-04-26T14:51:18.653Z,96.07
2019-04-26T14:54:11.535Z,92.63
2019-04-26T14:56:51.492Z,94.01
2019-04-26T14:59:10.321Z,92.69
2019-04-26T15:04:47.324Z,92.99
2019-04-26T15:07:15.971Z,92.56
2019-04-26T15:09:44.580Z,91.69
2019-04-26T15:12:15.772Z,92.87
2019-04-26T15:14:43.614Z,94.09
2019-04-26T15:17:12.563Z,95.03
2019-04-26T15:19:45.955Z,95.72
2019-04-26T15:22:13.163Z,93.50
2019-04-26T15:24:42.203Z,92.09
2019-04-26T15:27:12.119Z,92.61
2019-04-26T15:29:42.321Z,91.97
2019-04-26T15:32:12.765Z,90.98
2019-04-26T15:34:41.584Z,91.33
2019-04-26T15:37:10.285Z,91.08
2019-04-26T15:39:58.423Z,91.04
2019-04-26T15:42:58.718Z,92.64
2019-04-26T15:48:12.141Z,92.89
2019-04-26T15:50:59.900Z,93.22
2019-04-26T15:53:28.495Z,94.51
2019-04-26T15:55:57.142Z,93.80
2019-04-26T15:58:25.950Z,95.40
2019-04-26T16:03:44.573Z,92.68
2019-04-26T16:06:14.267Z,93.93
2019-04-26T16:08:43.971Z,92.90
2019-04-26T16:11:13.324Z,91.17
2019-04-26T16:13:45.151Z,90.40
2019-04-26T16:16:12.669Z,89.97
2019-04-26T16:18:43.157Z,91.91
2019-04-26T16:21:32.565Z,93.25
2019-04-26T16:24:02.754Z,93.58
2019-04-26T16:26:32.940Z,94.13
2019-04-26T16:32:10.456Z,94.82
2019-04-26T16:34:58.220Z,93.98
2019-04-26T16:37:26.968Z,94.45
2019-04-26T16:39:55.574Z,96.06
2019-04-26T16:42:24.220Z,94.65
2019-04-26T16:45:12.420Z,96.44
2019-04-26T16:47:45.095Z,96.87
2019-04-26T16:50:53.104Z,97.34
2019-04-26T16:53:42.513Z,96.18
2019-04-26T16:55:53.271Z,94.90
2019-04-26T16:58:24.650Z,96.09
2019-04-26T17:00:57.667Z,96.06
2019-04-26T17:03:25.937Z,96.10
2019-04-26T17:06:04.646Z,96.70
2019-04-26T17:08:23.764Z,96.34
2019-04-26T17:10:56.580Z,97.07
2019-04-26T17:13:23.912Z,97.52
2019-04-26T17:15:58.022Z,98.23
2019-04-26T17:18:26.894Z,98.77
2019-04-26T17:20:53.890Z,97.96
2019-04-26T17:23:41.646Z,98.33
2019-04-26T17:26:33.578Z,98.46
2019-04-26T17:28:59.914Z,98.93
2019-04-26T17:31:28.666Z,98.97
2019-04-26T17:33:57.337Z,99.84
2019-04-26T17:36:25.979Z,100.00
2019-04-26T17:38:54.620Z,100.00
2019-04-26T17:41:23.298Z,99.65
2019-04-26T17:44:05.787Z,100.00
2019-04-26T17:46:22.395Z,99.90
2019-04-26T17:48:51.361Z,100.00
2019-04-26T17:51:23.234Z,100.00
2019-04-26T17:54:18.626Z,100.00
2019-04-26T17:56:26.208Z,100.00
2019-04-26T17:58:54.663Z,100.00
2019-04-26T18:01:42.125Z,100.00
2019-04-26T18:03:55.714Z,100.00
2019-04-26T18:06:29.951Z,100.00
2019-04-26T18:08:55.196Z,100.00
2019-04-26T18:11:25.171Z,100.00
2019-04-26T18:13:55.156Z,100.00
2019-04-26T18:16:29.178Z,100.00
2019-04-26T18:19:13.401Z,100.00
2019-04-26T18:22:01.190Z,100.00
2019-04-26T18:24:32.277Z,100.00
2019-04-26T18:27:00.591Z,100.00
2019-04-26T18:29:30.628Z,100.00
2019-04-26T18:32:03.732Z,100.00
2019-04-26T18:34:30.585Z,100.00
2019-04-26T18:37:01.984Z,100.00
2019-04-26T18:39:30.371Z,100.00
2019-04-26T18:42:04.312Z,100.00
2019-04-26T18:44:36.950Z,100.00
2019-04-26T18:49:52.043Z,100.00
2019-04-26T18:52:19.554Z,100.00
2019-04-26T18:55:08.821Z,100.00
2019-04-26T18:57:37.566Z,100.00
2019-04-26T19:00:46.034Z,100.00
2019-04-26T19:03:16.015Z,100.00
2019-04-26T19:05:45.297Z,100.00
2019-04-26T19:08:14.921Z,100.00
2019-04-26T19:10:44.399Z,100.00
2019-04-26T19:13:36.600Z,100.00
2019-04-26T19:16:21.681Z,100.00
2019-04-26T19:19:09.405Z,100.00
2019-04-26T19:21:57.218Z,100.00
2019-04-26T19:24:25.900Z,100.00
2019-04-26T19:26:54.529Z,100.00
2019-04-26T19:29:32.691Z,100.00
2019-04-26T19:31:56.602Z,100.00
2019-04-26T19:34:26.004Z,100.00
2019-04-26T19:36:56.407Z,100.00
2019-04-26T19:39:32.397Z,100.00
2019-04-26T19:41:57.672Z,100.00
2019-04-26T19:44:25.543Z,100.00
2019-04-26T19:52:45.153Z,100.00
2019-04-26T19:58:09.707Z,100.00
2019-04-26T20:00:43.417Z,100.00
2019-04-26T20:03:15.162Z,100.00
2019-04-26T20:05:40.587Z,100.00
2019-04-26T20:08:10.110Z,100.00
2019-04-26T20:10:43.231Z,100.00
2019-04-26T20:13:15.131Z,100.00
2019-04-26T20:15:42.334Z,100.00
2019-04-26T20:18:12.226Z,100.00
2019-04-26T20:20:42.281Z,100.00
2019-04-26T20:23:12.389Z,100.00
2019-04-26T20:25:41.307Z,100.00
2019-04-26T20:28:09.964Z,100.00
2019-04-26T20:31:05.856Z,100.00
2019-04-26T20:33:31.139Z,100.00
2019-04-26T20:36:03.417Z,100.00
2019-04-26T20:38:33.265Z,100.00
2019-04-26T20:41:01.481Z,100.00
2019-04-26T20:43:32.109Z,100.00
2019-04-26T20:46:12.388Z,100.00
2019-04-26T20:48:33.154Z,100.00
2019-04-26T20:51:02.393Z,100.00
2019-04-26T20:53:39.904Z,100.00
2019-04-26T20:56:03.757Z,100.00
2019-04-26T20:58:33.054Z,100.00
2019-04-26T21:03:51.765Z,100.00
2019-04-26T21:06:22.246Z,100.00
2019-04-26T21:08:52.251Z,100.00
2019-04-26T21:11:22.254Z,100.00
2019-04-26T21:13:51.935Z,100.00
2019-04-26T21:16:22.130Z,100.00
2019-04-26T21:18:52.432Z,100.00
2019-04-26T21:21:22.240Z,100.00
2019-04-26T21:26:52.758Z,100.00
2019-04-26T21:32:30.395Z,100.00
2019-04-26T21:37:53.967Z,100.00
2019-04-26T21:48:53.412Z,100.00
2019-04-26T21:51:23.139Z,100.00
2019-04-26T21:53:52.991Z,100.00
2019-04-26T21:56:23.565Z,100.00
2019-04-26T21:58:53.262Z,100.00
2019-04-26T22:04:13.270Z,100.00
2019-04-26T22:06:42.749Z,100.00
2019-04-26T22:09:52.799Z,100.00
2019-04-26T22:13:01.622Z,100.00
2019-04-26T22:15:50.859Z,100.00
2019-04-26T22:18:38.918Z,100.00
2019-04-26T22:24:03.936Z,100.00
2019-04-26T22:26:33.940Z,100.00
2019-04-26T22:29:03.807Z,100.00
2019-04-26T22:31:33.791Z,100.00
2019-04-26T22:34:07.496Z,100.00
2019-04-26T22:36:35.752Z,100.00
2019-04-26T22:39:44.451Z,100.00
2019-04-26T22:42:14.528Z,100.00
2019-04-26T22:47:42.464Z,100.00
2019-04-26T22:50:27.382Z,100.00
2019-04-26T22:52:56.083Z,100.00
2019-04-26T22:55:27.532Z,100.00
2019-04-26T22:57:55.183Z,100.00
2019-04-26T23:05:53.731Z,100.00
2019-04-26T23:11:13.404Z,100.00
2019-04-26T23:14:03.399Z,100.00
2019-04-26T23:17:04.107Z,100.00
2019-04-26T23:19:41.377Z,100.00
2019-04-26T23:24:54.545Z,100.00
2019-04-26T23:27:20.713Z,100.00
2019-04-26T23:29:56.820Z,100.00
2019-04-26T23:32:20.672Z,100.00
2019-04-26T23:37:38.572Z,100.00
2019-04-26T23:40:07.240Z,100.00
2019-04-26T23:42:35.888Z,100.00
2019-04-26T23:45:48.272Z,100.00
2019-04-26T23:48:14.742Z,100.00
2019-04-26T23:50:43.390Z,100.00
2019-04-26T23:53:13.780Z,100.00
2019-04-26T23:55:45.130Z,100.00
2019-04-26T23:58:13.890Z,100.00
